sensor_id;sensor_type;location;lat;lon;timestamp;P1;durP1;ratioP1;P2;durP2;ratioP2
36353;SDS011;22383;51.114;13.666;2022-08-21T00:01:38;117.95;;;56.67;;
36353;SDS011;22383;51.114;13.666;2022-08-21T00:04:06;115.18;;;56.35;;
36353;SDS011;22383;51.114;13.666;2022-08-21T00:06:35;122.72;;;58.63;;
36353;SDS011;22383;51.114;13.666;2022-08-21T00:09:04;112.15;;;56.78;;
36353;SDS011;22383;51.114;13.666;2022-08-21T00:11:34;117.47;;;58.83;;
36353;SDS011;22383;51.114;13.666;2022-08-21T00:14:03;114.60;;;57.58;;
36353;SDS011;22383;51.114;13.666;2022-08-21T00:16:32;117.13;;;56.67;;
36353;SDS011;22383;51.114;13.666;2022-08-21T00:19:11;116.72;;;58.35;;
36353;SDS011;22383;51.114;13.666;2022-08-21T00:21:38;116.72;;;58.35;;
36353;SDS011;22383;51.114;13.666;2022-08-21T00:24:10;115.97;;;58.72;;
36353;SDS011;22383;51.114;13.666;2022-08-21T00:26:38;136.18;;;63.42;;
36353;SDS011;22383;51.114;13.666;2022-08-21T00:29:06;137.02;;;62.65;;
36353;SDS011;22383;51.114;13.666;2022-08-21T00:31:33;145.50;;;66.03;;
36353;SDS011;22383;51.114;13.666;2022-08-21T00:34:00;144.63;;;65.80;;
36353;SDS011;22383;51.114;13.666;2022-08-21T00:36:28;143.20;;;65.45;;
36353;SDS011;22383;51.114;13.666;2022-08-21T00:38:56;158.80;;;67.05;;
36353;SDS011;22383;51.114;13.666;2022-08-21T00:41:24;143.43;;;66.13;;
36353;SDS011;22383;51.114;13.666;2022-08-21T00:44:06;148.48;;;66.05;;
36353;SDS011;22383;51.114;13.666;2022-08-21T00:46:37;158.43;;;69.05;;
36353;SDS011;22383;51.114;13.666;2022-08-21T00:49:07;153.23;;;69.90;;
36353;SDS011;22383;51.114;13.666;2022-08-21T00:54:07;164.68;;;72.22;;
36353;SDS011;22383;51.114;13.666;2022-08-21T00:56:50;154.88;;;70.15;;
36353;SDS011;22383;51.114;13.666;2022-08-21T00:59:36;154.07;;;67.38;;
36353;SDS011;22383;51.114;13.666;2022-08-21T01:02:08;149.35;;;64.13;;
36353;SDS011;22383;51.114;13.666;2022-08-21T01:04:39;133.25;;;59.75;;
36353;SDS011;22383;51.114;13.666;2022-08-21T01:12:03;33.03;;;20.85;;
36353;SDS011;22383;51.114;13.666;2022-08-21T01:14:31;32.75;;;21.52;;
36353;SDS011;22383;51.114;13.666;2022-08-21T01:19:27;26.95;;;17.90;;
36353;SDS011;22383;51.114;13.666;2022-08-21T01:21:55;30.05;;;20.48;;
36353;SDS011;22383;51.114;13.666;2022-08-21T01:24:23;32.20;;;21.38;;
36353;SDS011;22383;51.114;13.666;2022-08-21T01:26:51;32.28;;;23.13;;
36353;SDS011;22383;51.114;13.666;2022-08-21T01:32:15;33.60;;;21.05;;
36353;SDS011;22383;51.114;13.666;2022-08-21T01:34:45;32.13;;;21.75;;
36353;SDS011;22383;51.114;13.666;2022-08-21T01:37:14;33.83;;;22.70;;
36353;SDS011;22383;51.114;13.666;2022-08-21T01:39:43;35.03;;;24.17;;
36353;SDS011;22383;51.114;13.666;2022-08-21T01:44:39;37.33;;;24.63;;
36353;SDS011;22383;51.114;13.666;2022-08-21T01:49:36;40.80;;;26.88;;
36353;SDS011;22383;51.114;13.666;2022-08-21T01:52:04;37.15;;;26.10;;
36353;SDS011;22383;51.114;13.666;2022-08-21T01:54:35;39.75;;;25.88;;
36353;SDS011;22383;51.114;13.666;2022-08-21T01:57:04;38.08;;;25.35;;
36353;SDS011;22383;51.114;13.666;2022-08-21T01:59:31;41.08;;;25.73;;
36353;SDS011;22383;51.114;13.666;2022-08-21T02:01:59;52.45;;;28.75;;
36353;SDS011;22383;51.114;13.666;2022-08-21T03:14:49;52.07;;;28.43;;
36353;SDS011;22383;51.114;13.666;2022-08-21T03:17:16;49.70;;;30.42;;
36353;SDS011;22383;51.114;13.666;2022-08-21T03:19:57;47.47;;;30.90;;
36353;SDS011;22383;51.114;13.666;2022-08-21T03:22:32;47.60;;;30.45;;
36353;SDS011;22383;51.114;13.666;2022-08-21T03:25:01;42.50;;;27.98;;
36353;SDS011;22383;51.114;13.666;2022-08-21T03:27:33;46.88;;;29.63;;
36353;SDS011;22383;51.114;13.666;2022-08-21T03:30:06;59.97;;;33.15;;
36353;SDS011;22383;51.114;13.666;2022-08-21T03:32:38;62.17;;;35.10;;
36353;SDS011;22383;51.114;13.666;2022-08-21T03:35:08;59.38;;;33.70;;
36353;SDS011;22383;51.114;13.666;2022-08-21T03:37:36;69.57;;;36.63;;
36353;SDS011;22383;51.114;13.666;2022-08-21T03:42:35;61.67;;;34.63;;
36353;SDS011;22383;51.114;13.666;2022-08-21T03:45:03;73.63;;;39.22;;
36353;SDS011;22383;51.114;13.666;2022-08-21T03:47:33;64.78;;;36.85;;
36353;SDS011;22383;51.114;13.666;2022-08-21T03:52:43;61.25;;;34.85;;
36353;SDS011;22383;51.114;13.666;2022-08-21T03:55:10;66.95;;;35.67;;
36353;SDS011;22383;51.114;13.666;2022-08-21T03:57:37;64.18;;;36.78;;
36353;SDS011;22383;51.114;13.666;2022-08-21T04:00:04;65.45;;;37.55;;
36353;SDS011;22383;51.114;13.666;2022-08-21T04:02:35;69.40;;;37.75;;
36353;SDS011;22383;51.114;13.666;2022-08-21T04:05:02;66.88;;;40.13;;
36353;SDS011;22383;51.114;13.666;2022-08-21T04:07:31;67.57;;;38.88;;
36353;SDS011;22383;51.114;13.666;2022-08-21T04:10:20;64.82;;;38.72;;
36353;SDS011;22383;51.114;13.666;2022-08-21T04:12:49;75.55;;;40.35;;
36353;SDS011;22383;51.114;13.666;2022-08-21T04:15:51;77.65;;;40.80;;
36353;SDS011;22383;51.114;13.666;2022-08-21T04:18:52;73.30;;;40.65;;
36353;SDS011;22383;51.114;13.666;2022-08-21T04:48:54;82.30;;;43.55;;
36353;SDS011;22383;51.114;13.666;2022-08-21T05:21:20;84.50;;;45.30;;
36353;SDS011;22383;51.114;13.666;2022-08-21T05:23:47;77.65;;;44.75;;
36353;SDS011;22383;51.114;13.666;2022-08-21T05:26:15;88.32;;;46.72;;
36353;SDS011;22383;51.114;13.666;2022-08-21T05:28:44;85.88;;;45.72;;
36353;SDS011;22383;51.114;13.666;2022-08-21T05:31:12;76.50;;;43.30;;
36353;SDS011;22383;51.114;13.666;2022-08-21T05:33:39;86.13;;;47.25;;
36353;SDS011;22383;51.114;13.666;2022-08-21T05:36:09;80.75;;;46.38;;
36353;SDS011;22383;51.114;13.666;2022-08-21T05:38:37;75.38;;;43.63;;
36353;SDS011;22383;51.114;13.666;2022-08-21T05:41:04;69.20;;;42.50;;
36353;SDS011;22383;51.114;13.666;2022-08-21T05:43:31;74.18;;;41.92;;
36353;SDS011;22383;51.114;13.666;2022-08-21T05:46:03;68.43;;;42.10;;
36353;SDS011;22383;51.114;13.666;2022-08-21T05:48:32;66.95;;;41.10;;
36353;SDS011;22383;51.114;13.666;2022-08-21T05:51:08;71.68;;;41.33;;
36353;SDS011;22383;51.114;13.666;2022-08-21T05:53:38;72.88;;;41.15;;
36353;SDS011;22383;51.114;13.666;2022-08-21T05:56:06;69.25;;;42.67;;
36353;SDS011;22383;51.114;13.666;2022-08-21T05:58:34;63.85;;;40.10;;
36353;SDS011;22383;51.114;13.666;2022-08-21T06:01:02;70.60;;;41.08;;
36353;SDS011;22383;51.114;13.666;2022-08-21T06:03:34;65.35;;;40.92;;
36353;SDS011;22383;51.114;13.666;2022-08-21T06:06:03;63.28;;;39.90;;
36353;SDS011;22383;51.114;13.666;2022-08-21T06:08:30;66.97;;;40.10;;
36353;SDS011;22383;51.114;13.666;2022-08-21T06:10:59;69.85;;;42.25;;
36353;SDS011;22383;51.114;13.666;2022-08-21T06:13:27;66.60;;;42.53;;
36353;SDS011;22383;51.114;13.666;2022-08-21T06:16:08;62.70;;;40.40;;
36353;SDS011;22383;51.114;13.666;2022-08-21T06:18:41;69.80;;;39.22;;
36353;SDS011;22383;51.114;13.666;2022-08-21T06:21:10;64.47;;;38.53;;
36353;SDS011;22383;51.114;13.666;2022-08-21T06:23:38;69.15;;;39.95;;
36353;SDS011;22383;51.114;13.666;2022-08-21T06:26:07;56.72;;;36.45;;
36353;SDS011;22383;51.114;13.666;2022-08-21T06:28:35;58.22;;;37.78;;
36353;SDS011;22383;51.114;13.666;2022-08-21T06:31:10;59.28;;;37.28;;
36353;SDS011;22383;51.114;13.666;2022-08-21T06:33:42;49.83;;;33.45;;
36353;SDS011;22383;51.114;13.666;2022-08-21T06:36:10;59.38;;;38.22;;
36353;SDS011;22383;51.114;13.666;2022-08-21T06:38:37;49.67;;;35.85;;
36353;SDS011;22383;51.114;13.666;2022-08-21T06:41:05;50.70;;;34.63;;
36353;SDS011;22383;51.114;13.666;2022-08-21T06:43:36;47.88;;;33.28;;
36353;SDS011;22383;51.114;13.666;2022-08-21T06:46:06;49.10;;;33.80;;
36353;SDS011;22383;51.114;13.666;2022-08-21T06:48:34;47.08;;;32.95;;
36353;SDS011;22383;51.114;13.666;2022-08-21T06:51:02;46.85;;;31.95;;
36353;SDS011;22383;51.114;13.666;2022-08-21T06:53:29;48.33;;;33.53;;
36353;SDS011;22383;51.114;13.666;2022-08-21T06:55:57;46.40;;;33.33;;
36353;SDS011;22383;51.114;13.666;2022-08-21T06:58:24;45.08;;;33.50;;
36353;SDS011;22383;51.114;13.666;2022-08-21T07:03:27;48.58;;;33.70;;
36353;SDS011;22383;51.114;13.666;2022-08-21T07:05:56;46.30;;;33.20;;
36353;SDS011;22383;51.114;13.666;2022-08-21T07:08:26;47.08;;;34.10;;
36353;SDS011;22383;51.114;13.666;2022-08-21T07:10:56;47.90;;;35.13;;
36353;SDS011;22383;51.114;13.666;2022-08-21T07:13:26;48.83;;;34.08;;
36353;SDS011;22383;51.114;13.666;2022-08-21T07:15:54;40.50;;;31.88;;
36353;SDS011;22383;51.114;13.666;2022-08-21T07:18:27;45.22;;;31.88;;
36353;SDS011;22383;51.114;13.666;2022-08-21T07:20:54;52.38;;;34.33;;
36353;SDS011;22383;51.114;13.666;2022-08-21T07:23:23;43.72;;;32.28;;
36353;SDS011;22383;51.114;13.666;2022-08-21T07:25:53;46.53;;;31.98;;
36353;SDS011;22383;51.114;13.666;2022-08-21T07:28:22;39.88;;;31.17;;
36353;SDS011;22383;51.114;13.666;2022-08-21T07:30:50;38.05;;;30.17;;
36353;SDS011;22383;51.114;13.666;2022-08-21T07:33:21;34.60;;;29.35;;
36353;SDS011;22383;51.114;13.666;2022-08-21T07:35:50;42.20;;;30.88;;
36353;SDS011;22383;51.114;13.666;2022-08-21T07:38:17;38.47;;;29.27;;
36353;SDS011;22383;51.114;13.666;2022-08-21T07:40:46;39.47;;;30.60;;
36353;SDS011;22383;51.114;13.666;2022-08-21T07:43:14;34.75;;;29.25;;
36353;SDS011;22383;51.114;13.666;2022-08-21T07:45:44;40.88;;;28.55;;
36353;SDS011;22383;51.114;13.666;2022-08-21T07:48:12;35.17;;;27.90;;
36353;SDS011;22383;51.114;13.666;2022-08-21T07:50:44;38.83;;;29.50;;
36353;SDS011;22383;51.114;13.666;2022-08-21T07:53:12;36.58;;;29.35;;
36353;SDS011;22383;51.114;13.666;2022-08-21T07:55:42;31.83;;;25.10;;
36353;SDS011;22383;51.114;13.666;2022-08-21T07:58:10;30.67;;;25.23;;
36353;SDS011;22383;51.114;13.666;2022-08-21T08:00:37;33.63;;;26.63;;
36353;SDS011;22383;51.114;13.666;2022-08-21T08:03:04;35.15;;;27.00;;
36353;SDS011;22383;51.114;13.666;2022-08-21T08:05:31;32.42;;;25.42;;
36353;SDS011;22383;51.114;13.666;2022-08-21T08:07:59;32.15;;;25.13;;
36353;SDS011;22383;51.114;13.666;2022-08-21T08:10:26;34.83;;;26.90;;
36353;SDS011;22383;51.114;13.666;2022-08-21T08:12:54;31.23;;;26.20;;
36353;SDS011;22383;51.114;13.666;2022-08-21T08:17:50;32.58;;;23.45;;
36353;SDS011;22383;51.114;13.666;2022-08-21T08:20:19;26.35;;;23.25;;
36353;SDS011;22383;51.114;13.666;2022-08-21T08:22:47;35.08;;;24.88;;
36353;SDS011;22383;51.114;13.666;2022-08-21T08:25:20;29.70;;;24.90;;
36353;SDS011;22383;51.114;13.666;2022-08-21T08:27:49;30.65;;;23.13;;
36353;SDS011;22383;51.114;13.666;2022-08-21T08:30:18;28.55;;;21.95;;
36353;SDS011;22383;51.114;13.666;2022-08-21T08:32:47;29.38;;;22.33;;
36353;SDS011;22383;51.114;13.666;2022-08-21T08:35:15;32.50;;;23.10;;
36353;SDS011;22383;51.114;13.666;2022-08-21T08:37:43;31.00;;;25.23;;
36353;SDS011;22383;51.114;13.666;2022-08-21T08:40:21;30.50;;;23.25;;
36353;SDS011;22383;51.114;13.666;2022-08-21T08:43:04;27.27;;;22.55;;
36353;SDS011;22383;51.114;13.666;2022-08-21T08:48:04;23.85;;;17.98;;
36353;SDS011;22383;51.114;13.666;2022-08-21T08:50:42;17.17;;;15.13;;
36353;SDS011;22383;51.114;13.666;2022-08-21T08:53:25;21.90;;;18.92;;
36353;SDS011;22383;51.114;13.666;2022-08-21T08:55:58;26.17;;;20.27;;
36353;SDS011;22383;51.114;13.666;2022-08-21T08:58:29;21.55;;;18.25;;
36353;SDS011;22383;51.114;13.666;2022-08-21T09:01:00;19.40;;;16.63;;
36353;SDS011;22383;51.114;13.666;2022-08-21T09:03:28;23.40;;;18.30;;
36353;SDS011;22383;51.114;13.666;2022-08-21T09:05:59;21.50;;;16.67;;
36353;SDS011;22383;51.114;13.666;2022-08-21T09:16:29;18.85;;;11.90;;
36353;SDS011;22383;51.114;13.666;2022-08-21T09:19:11;14.45;;;10.40;;
36353;SDS011;22383;51.114;13.666;2022-08-21T09:21:53;13.43;;;10.00;;
36353;SDS011;22383;51.114;13.666;2022-08-21T09:24:50;18.75;;;12.48;;
36353;SDS011;22383;51.114;13.666;2022-08-21T09:27:26;14.00;;;10.32;;
36353;SDS011;22383;51.114;13.666;2022-08-21T09:29:54;12.23;;;9.10;;
36353;SDS011;22383;51.114;13.666;2022-08-21T09:32:23;12.88;;;9.73;;
36353;SDS011;22383;51.114;13.666;2022-08-21T09:35:17;13.70;;;7.65;;
36353;SDS011;22383;51.114;13.666;2022-08-21T09:42:54;13.65;;;7.10;;
36353;SDS011;22383;51.114;13.666;2022-08-21T09:45:23;8.40;;;5.30;;
36353;SDS011;22383;51.114;13.666;2022-08-21T09:47:54;12.23;;;4.88;;
36353;SDS011;22383;51.114;13.666;2022-08-21T09:50:23;11.70;;;4.88;;
36353;SDS011;22383;51.114;13.666;2022-08-21T09:52:57;8.70;;;5.00;;
36353;SDS011;22383;51.114;13.666;2022-08-21T09:58:34;6.75;;;4.32;;
36353;SDS011;22383;51.114;13.666;2022-08-21T10:01:04;10.25;;;5.18;;
36353;SDS011;22383;51.114;13.666;2022-08-21T10:03:34;8.73;;;4.25;;
36353;SDS011;22383;51.114;13.666;2022-08-21T10:06:03;8.27;;;4.40;;
36353;SDS011;22383;51.114;13.666;2022-08-21T10:08:36;7.97;;;4.50;;
36353;SDS011;22383;51.114;13.666;2022-08-21T10:11:08;6.88;;;4.70;;
36353;SDS011;22383;51.114;13.666;2022-08-21T10:16:51;8.30;;;4.72;;
36353;SDS011;22383;51.114;13.666;2022-08-21T10:22:08;6.45;;;4.80;;
36353;SDS011;22383;51.114;13.666;2022-08-21T10:33:20;7.85;;;4.72;;
36353;SDS011;22383;51.114;13.666;2022-08-21T10:44:17;10.90;;;4.13;;
36353;SDS011;22383;51.114;13.666;2022-08-21T10:47:08;7.60;;;3.90;;
36353;SDS011;22383;51.114;13.666;2022-08-21T10:49:50;7.75;;;4.20;;
36353;SDS011;22383;51.114;13.666;2022-08-21T11:01:57;7.10;;;3.75;;
36353;SDS011;22383;51.114;13.666;2022-08-21T11:04:32;9.52;;;4.60;;
36353;SDS011;22383;51.114;13.666;2022-08-21T11:07:19;9.25;;;3.60;;
36353;SDS011;22383;51.114;13.666;2022-08-21T11:17:36;8.57;;;3.53;;
36353;SDS011;22383;51.114;13.666;2022-08-21T11:21:39;7.53;;;2.92;;
36353;SDS011;22383;51.114;13.666;2022-08-21T11:24:30;10.93;;;3.00;;
36353;SDS011;22383;51.114;13.666;2022-08-21T11:29:50;9.75;;;2.60;;
36353;SDS011;22383;51.114;13.666;2022-08-21T11:38:26;13.10;;;2.80;;
36353;SDS011;22383;51.114;13.666;2022-08-21T11:44:40;7.95;;;3.03;;
36353;SDS011;22383;51.114;13.666;2022-08-21T11:53:11;4.30;;;2.00;;
36353;SDS011;22383;51.114;13.666;2022-08-21T11:56:07;11.98;;;2.50;;
36353;SDS011;22383;51.114;13.666;2022-08-21T11:58:48;8.23;;;2.33;;
36353;SDS011;22383;51.114;13.666;2022-08-21T12:01:22;11.70;;;2.10;;
36353;SDS011;22383;51.114;13.666;2022-08-21T12:03:57;5.63;;;2.05;;
36353;SDS011;22383;51.114;13.666;2022-08-21T12:15:06;9.10;;;2.58;;
36353;SDS011;22383;51.114;13.666;2022-08-21T12:17:36;4.63;;;1.80;;
36353;SDS011;22383;51.114;13.666;2022-08-21T12:25:46;9.10;;;2.10;;
36353;SDS011;22383;51.114;13.666;2022-08-21T12:28:29;10.95;;;2.20;;
36353;SDS011;22383;51.114;13.666;2022-08-21T12:31:04;8.02;;;2.00;;
36353;SDS011;22383;51.114;13.666;2022-08-21T12:33:47;10.93;;;2.10;;
36353;SDS011;22383;51.114;13.666;2022-08-21T12:36:20;5.88;;;2.50;;
36353;SDS011;22383;51.114;13.666;2022-08-21T12:38:56;5.20;;;1.88;;
36353;SDS011;22383;51.114;13.666;2022-08-21T12:41:28;6.55;;;1.90;;
36353;SDS011;22383;51.114;13.666;2022-08-21T12:44:13;9.13;;;1.90;;
36353;SDS011;22383;51.114;13.666;2022-08-21T12:46:48;9.00;;;1.92;;
36353;SDS011;22383;51.114;13.666;2022-08-21T12:51:56;2.97;;;1.80;;
36353;SDS011;22383;51.114;13.666;2022-08-21T12:54:31;7.43;;;3.00;;
36353;SDS011;22383;51.114;13.666;2022-08-21T12:57:05;7.43;;;2.10;;
36353;SDS011;22383;51.114;13.666;2022-08-21T12:59:32;7.85;;;2.80;;
36353;SDS011;22383;51.114;13.666;2022-08-21T13:02:11;10.73;;;2.30;;
36353;SDS011;22383;51.114;13.666;2022-08-21T13:07:13;9.13;;;2.33;;
36353;SDS011;22383;51.114;13.666;2022-08-21T13:09:51;7.38;;;2.40;;
36353;SDS011;22383;51.114;13.666;2022-08-21T13:12:36;4.32;;;1.63;;
36353;SDS011;22383;51.114;13.666;2022-08-21T13:15:06;7.47;;;2.22;;
36353;SDS011;22383;51.114;13.666;2022-08-21T13:17:36;5.70;;;1.90;;
36353;SDS011;22383;51.114;13.666;2022-08-21T13:20:20;4.65;;;1.75;;
36353;SDS011;22383;51.114;13.666;2022-08-21T13:22:50;6.05;;;2.28;;
36353;SDS011;22383;51.114;13.666;2022-08-21T13:25:19;12.15;;;2.30;;
36353;SDS011;22383;51.114;13.666;2022-08-21T13:28:07;6.15;;;1.92;;
36353;SDS011;22383;51.114;13.666;2022-08-21T13:30:39;8.60;;;2.08;;
36353;SDS011;22383;51.114;13.666;2022-08-21T13:33:12;4.15;;;1.58;;
36353;SDS011;22383;51.114;13.666;2022-08-21T13:38:43;6.40;;;1.85;;
36353;SDS011;22383;51.114;13.666;2022-08-21T13:43:46;7.30;;;2.33;;
36353;SDS011;22383;51.114;13.666;2022-08-21T13:46:26;6.85;;;1.83;;
36353;SDS011;22383;51.114;13.666;2022-08-21T13:48:58;4.18;;;1.85;;
36353;SDS011;22383;51.114;13.666;2022-08-21T13:51:26;7.43;;;2.30;;
36353;SDS011;22383;51.114;13.666;2022-08-21T13:58:55;6.68;;;2.10;;
36353;SDS011;22383;51.114;13.666;2022-08-21T14:01:31;6.07;;;2.10;;
36353;SDS011;22383;51.114;13.666;2022-08-21T14:04:07;8.95;;;2.17;;
36353;SDS011;22383;51.114;13.666;2022-08-21T14:06:47;5.35;;;2.08;;
36353;SDS011;22383;51.114;13.666;2022-08-21T14:09:34;9.63;;;1.95;;
36353;SDS011;22383;51.114;13.666;2022-08-21T14:12:13;6.57;;;1.90;;
36353;SDS011;22383;51.114;13.666;2022-08-21T14:14:49;3.95;;;1.45;;
36353;SDS011;22383;51.114;13.666;2022-08-21T14:17:29;7.20;;;1.98;;
36353;SDS011;22383;51.114;13.666;2022-08-21T14:20:05;4.38;;;1.75;;
36353;SDS011;22383;51.114;13.666;2022-08-21T14:27:35;7.93;;;2.03;;
36353;SDS011;22383;51.114;13.666;2022-08-21T14:30:13;4.97;;;1.75;;
36353;SDS011;22383;51.114;13.666;2022-08-21T14:32:45;3.97;;;1.98;;
36353;SDS011;22383;51.114;13.666;2022-08-21T14:35:14;4.28;;;1.40;;
36353;SDS011;22383;51.114;13.666;2022-08-21T14:37:50;5.85;;;1.80;;
36353;SDS011;22383;51.114;13.666;2022-08-21T14:40:19;4.57;;;1.52;;
36353;SDS011;22383;51.114;13.666;2022-08-21T14:42:49;6.63;;;2.28;;
36353;SDS011;22383;51.114;13.666;2022-08-21T14:47:54;4.55;;;1.50;;
36353;SDS011;22383;51.114;13.666;2022-08-21T14:50:22;7.72;;;1.55;;
36353;SDS011;22383;51.114;13.666;2022-08-21T14:52:54;7.28;;;1.67;;
36353;SDS011;22383;51.114;13.666;2022-08-21T14:55:22;4.97;;;1.80;;
36353;SDS011;22383;51.114;13.666;2022-08-21T14:57:50;2.50;;;1.67;;
36353;SDS011;22383;51.114;13.666;2022-08-21T15:00:20;3.42;;;1.45;;
36353;SDS011;22383;51.114;13.666;2022-08-21T15:03:02;4.38;;;1.50;;
36353;SDS011;22383;51.114;13.666;2022-08-21T15:08:00;5.28;;;1.52;;
36353;SDS011;22383;51.114;13.666;2022-08-21T15:10:27;4.18;;;1.40;;
36353;SDS011;22383;51.114;13.666;2022-08-21T15:12:58;5.25;;;1.60;;
36353;SDS011;22383;51.114;13.666;2022-08-21T15:15:26;5.88;;;1.60;;
36353;SDS011;22383;51.114;13.666;2022-08-21T15:17:53;8.57;;;1.85;;
36353;SDS011;22383;51.114;13.666;2022-08-21T15:20:21;4.78;;;1.83;;
36353;SDS011;22383;51.114;13.666;2022-08-21T15:25:16;4.25;;;1.58;;
36353;SDS011;22383;51.114;13.666;2022-08-21T15:27:43;5.03;;;1.60;;
36353;SDS011;22383;51.114;13.666;2022-08-21T15:30:10;4.60;;;1.67;;
36353;SDS011;22383;51.114;13.666;2022-08-21T15:32:38;3.22;;;1.30;;
36353;SDS011;22383;51.114;13.666;2022-08-21T15:35:06;9.48;;;1.65;;
36353;SDS011;22383;51.114;13.666;2022-08-21T15:37:34;5.07;;;1.98;;
36353;SDS011;22383;51.114;13.666;2022-08-21T15:40:02;5.07;;;1.50;;
36353;SDS011;22383;51.114;13.666;2022-08-21T15:42:31;8.48;;;2.85;;
36353;SDS011;22383;51.114;13.666;2022-08-21T15:45:01;23.23;;;12.20;;
36353;SDS011;22383;51.114;13.666;2022-08-21T15:47:31;12.13;;;4.95;;
36353;SDS011;22383;51.114;13.666;2022-08-21T15:50:02;16.98;;;9.07;;
36353;SDS011;22383;51.114;13.666;2022-08-21T15:52:33;10.63;;;6.05;;
36353;SDS011;22383;51.114;13.666;2022-08-21T15:55:01;8.52;;;4.00;;
36353;SDS011;22383;51.114;13.666;2022-08-21T15:57:30;7.72;;;3.28;;
36353;SDS011;22383;51.114;13.666;2022-08-21T16:00:00;36.08;;;20.48;;
36353;SDS011;22383;51.114;13.666;2022-08-21T16:02:52;36.08;;;21.58;;
36353;SDS011;22383;51.114;13.666;2022-08-21T16:05:24;48.72;;;28.67;;
36353;SDS011;22383;51.114;13.666;2022-08-21T16:07:52;40.70;;;26.75;;
36353;SDS011;22383;51.114;13.666;2022-08-21T16:10:20;19.55;;;13.75;;
36353;SDS011;22383;51.114;13.666;2022-08-21T16:12:55;11.68;;;6.40;;
36353;SDS011;22383;51.114;13.666;2022-08-21T16:15:25;8.88;;;4.28;;
36353;SDS011;22383;51.114;13.666;2022-08-21T16:17:53;3.63;;;2.40;;
36353;SDS011;22383;51.114;13.666;2022-08-21T16:20:25;4.55;;;1.70;;
36353;SDS011;22383;51.114;13.666;2022-08-21T16:22:54;4.65;;;1.80;;
36353;SDS011;22383;51.114;13.666;2022-08-21T16:25:23;5.07;;;2.55;;
36353;SDS011;22383;51.114;13.666;2022-08-21T16:27:52;4.50;;;1.92;;
36353;SDS011;22383;51.114;13.666;2022-08-21T16:30:26;6.35;;;2.15;;
36353;SDS011;22383;51.114;13.666;2022-08-21T16:32:55;5.65;;;1.92;;
36353;SDS011;22383;51.114;13.666;2022-08-21T16:35:23;8.38;;;2.40;;
36353;SDS011;22383;51.114;13.666;2022-08-21T16:37:51;4.97;;;2.10;;
36353;SDS011;22383;51.114;13.666;2022-08-21T16:40:20;7.20;;;2.30;;
36353;SDS011;22383;51.114;13.666;2022-08-21T16:42:49;5.15;;;2.42;;
36353;SDS011;22383;51.114;13.666;2022-08-21T16:45:17;8.55;;;2.40;;
36353;SDS011;22383;51.114;13.666;2022-08-21T16:47:47;9.70;;;2.35;;
36353;SDS011;22383;51.114;13.666;2022-08-21T16:50:16;8.75;;;2.47;;
36353;SDS011;22383;51.114;13.666;2022-08-21T16:52:49;12.00;;;2.97;;
36353;SDS011;22383;51.114;13.666;2022-08-21T16:55:17;12.95;;;2.10;;
36353;SDS011;22383;51.114;13.666;2022-08-21T16:57:45;9.18;;;2.03;;
36353;SDS011;22383;51.114;13.666;2022-08-21T17:00:13;7.68;;;2.47;;
36353;SDS011;22383;51.114;13.666;2022-08-21T17:02:46;5.13;;;1.60;;
36353;SDS011;22383;51.114;13.666;2022-08-21T17:05:16;5.82;;;2.00;;
36353;SDS011;22383;51.114;13.666;2022-08-21T17:07:44;5.40;;;2.25;;
36353;SDS011;22383;51.114;13.666;2022-08-21T17:10:12;6.80;;;2.13;;
36353;SDS011;22383;51.114;13.666;2022-08-21T17:12:42;4.95;;;2.00;;
36353;SDS011;22383;51.114;13.666;2022-08-21T17:15:18;3.90;;;1.60;;
36353;SDS011;22383;51.114;13.666;2022-08-21T17:17:48;5.75;;;1.92;;
36353;SDS011;22383;51.114;13.666;2022-08-21T17:20:17;4.28;;;2.20;;
36353;SDS011;22383;51.114;13.666;2022-08-21T17:22:45;10.05;;;2.10;;
36353;SDS011;22383;51.114;13.666;2022-08-21T17:25:12;6.43;;;1.75;;
36353;SDS011;22383;51.114;13.666;2022-08-21T17:27:40;5.97;;;2.35;;
36353;SDS011;22383;51.114;13.666;2022-08-21T17:30:11;5.28;;;1.83;;
36353;SDS011;22383;51.114;13.666;2022-08-21T17:32:39;6.85;;;2.42;;
36353;SDS011;22383;51.114;13.666;2022-08-21T17:35:08;4.80;;;2.05;;
36353;SDS011;22383;51.114;13.666;2022-08-21T17:37:37;3.92;;;1.80;;
36353;SDS011;22383;51.114;13.666;2022-08-21T17:40:08;5.88;;;2.25;;
36353;SDS011;22383;51.114;13.666;2022-08-21T17:42:42;3.25;;;2.22;;
36353;SDS011;22383;51.114;13.666;2022-08-21T17:45:12;4.10;;;1.55;;
36353;SDS011;22383;51.114;13.666;2022-08-21T17:47:41;8.25;;;3.08;;
36353;SDS011;22383;51.114;13.666;2022-08-21T17:50:10;5.38;;;2.00;;
36353;SDS011;22383;51.114;13.666;2022-08-21T17:52:39;8.43;;;2.55;;
36353;SDS011;22383;51.114;13.666;2022-08-21T17:55:10;9.27;;;2.28;;
36353;SDS011;22383;51.114;13.666;2022-08-21T17:57:41;8.98;;;2.28;;
36353;SDS011;22383;51.114;13.666;2022-08-21T18:00:11;5.90;;;2.17;;
36353;SDS011;22383;51.114;13.666;2022-08-21T18:02:43;4.50;;;2.05;;
36353;SDS011;22383;51.114;13.666;2022-08-21T18:05:22;7.68;;;2.60;;
36353;SDS011;22383;51.114;13.666;2022-08-21T18:08:04;8.30;;;3.72;;
36353;SDS011;22383;51.114;13.666;2022-08-21T18:10:52;14.05;;;7.22;;
36353;SDS011;22383;51.114;13.666;2022-08-21T18:13:35;18.15;;;9.18;;
36353;SDS011;22383;51.114;13.666;2022-08-21T18:17:08;20.83;;;10.55;;
36353;SDS011;22383;51.114;13.666;2022-08-21T18:19:42;13.90;;;7.68;;
36353;SDS011;22383;51.114;13.666;2022-08-21T18:22:15;8.40;;;3.40;;
36353;SDS011;22383;51.114;13.666;2022-08-21T18:24:42;7.38;;;2.80;;
36353;SDS011;22383;51.114;13.666;2022-08-21T18:27:10;3.90;;;2.50;;
36353;SDS011;22383;51.114;13.666;2022-08-21T18:29:39;6.53;;;2.22;;
36353;SDS011;22383;51.114;13.666;2022-08-21T18:32:15;6.38;;;2.83;;
36353;SDS011;22383;51.114;13.666;2022-08-21T18:35:02;7.32;;;2.67;;
36353;SDS011;22383;51.114;13.666;2022-08-21T18:37:30;8.52;;;3.17;;
36353;SDS011;22383;51.114;13.666;2022-08-21T18:40:12;8.38;;;4.18;;
36353;SDS011;22383;51.114;13.666;2022-08-21T18:42:43;8.57;;;4.63;;
36353;SDS011;22383;51.114;13.666;2022-08-21T18:45:33;6.03;;;3.78;;
36353;SDS011;22383;51.114;13.666;2022-08-21T18:48:05;5.30;;;2.97;;
36353;SDS011;22383;51.114;13.666;2022-08-21T18:50:35;5.85;;;3.13;;
36353;SDS011;22383;51.114;13.666;2022-08-21T18:53:07;5.93;;;3.13;;
36353;SDS011;22383;51.114;13.666;2022-08-21T18:55:54;6.53;;;2.50;;
36353;SDS011;22383;51.114;13.666;2022-08-21T18:58:30;8.38;;;2.88;;
36353;SDS011;22383;51.114;13.666;2022-08-21T19:01:02;7.47;;;3.15;;
36353;SDS011;22383;51.114;13.666;2022-08-21T19:03:33;5.20;;;2.63;;
36353;SDS011;22383;51.114;13.666;2022-08-21T19:06:00;3.67;;;2.53;;
36353;SDS011;22383;51.114;13.666;2022-08-21T19:08:28;5.10;;;3.17;;
36353;SDS011;22383;51.114;13.666;2022-08-21T19:10:56;5.60;;;2.63;;
36353;SDS011;22383;51.114;13.666;2022-08-21T19:13:28;7.18;;;3.03;;
36353;SDS011;22383;51.114;13.666;2022-08-21T19:15:57;4.95;;;2.80;;
36353;SDS011;22383;51.114;13.666;2022-08-21T19:18:28;8.80;;;2.45;;
36353;SDS011;22383;51.114;13.666;2022-08-21T19:21:01;6.95;;;2.97;;
36353;SDS011;22383;51.114;13.666;2022-08-21T19:23:28;5.72;;;2.97;;
36353;SDS011;22383;51.114;13.666;2022-08-21T19:26:02;9.82;;;3.88;;